Terminal Aerodrome Forecast
Issued by NWS

Home | Current Version | Previous Version | Text Only | Print | Product List | Glossary On
Versions: 1 2 3 4 5 6 7 8 9 10 11 12 13 14 15 16 17 18 19 20 21
000
FTUS41 KBGM 281736
TAFELM
TAF
KELM 281736Z 2818/2918 12010G20KT P6SM SKC
     FM282100 12010G18KT P6SM SCT080
     FM290000 10008KT P6SM BKN080
      TEMPO 2902/2906 -SHRA OVC040
     FM290600 08008KT P6SM -SHRA OVC025
     FM291100 05010KT 6SM -RA OVC010=

USA.gov is the U.S. government's official web portal to all federal, state and local government web resources and services.